createdAt,value
2018-05-06T00:00:46.552Z,98691.99
2018-05-06T00:03:12.798Z,98692.70
2018-05-06T00:05:39.034Z,98692.09
2018-05-06T00:08:05.275Z,98689.11
2018-05-06T00:10:31.551Z,98695.04
2018-05-06T00:12:57.763Z,98690.34
2018-05-06T00:15:24.002Z,98684.48
2018-05-06T00:17:50.247Z,98683.57
2018-05-06T00:20:16.498Z,98689.66
2018-05-06T00:22:42.790Z,98687.19
2018-05-06T00:25:09.053Z,98693.20
2018-05-06T00:27:35.291Z,98687.56
2018-05-06T00:30:01.587Z,98691.34
2018-05-06T00:32:27.835Z,98695.13
2018-05-06T00:34:54.063Z,98692.27
2018-05-06T00:37:20.287Z,98690.49
2018-05-06T00:39:46.533Z,98688.63
2018-05-06T00:42:12.755Z,98687.63
2018-05-06T00:44:38.981Z,98696.28
2018-05-06T00:47:05.241Z,98695.96
2018-05-06T00:49:31.458Z,98690.41
2018-05-06T00:51:57.686Z,98688.98
2018-05-06T01:07:45.662Z,98707.88
2018-05-06T01:10:11.881Z,98701.31
2018-05-06T01:12:38.122Z,98700.99
2018-05-06T01:15:04.462Z,98709.64
2018-05-06T01:17:30.687Z,98707.93
2018-05-06T01:19:56.927Z,98710.92
2018-05-06T01:22:23.199Z,98710.53
2018-05-06T01:24:49.427Z,98710.59
2018-05-06T01:27:15.642Z,98712.10
2018-05-06T01:29:41.890Z,98711.94
2018-05-06T01:32:08.142Z,98714.14
2018-05-06T01:34:34.439Z,98718.78
2018-05-06T01:37:00.688Z,98717.61
2018-05-06T01:39:26.919Z,98722.34
2018-05-06T01:41:53.235Z,98718.55
2018-05-06T01:44:19.491Z,98722.25
2018-05-06T01:46:45.775Z,98721.37
2018-05-06T01:49:11.989Z,98718.80
2018-05-06T01:51:38.259Z,98717.23
2018-05-06T01:54:04.491Z,98708.84
2018-05-06T01:56:30.734Z,98712.67
2018-05-06T01:58:56.998Z,98715.66
2018-05-06T02:01:23.247Z,98714.82
2018-05-06T02:03:49.471Z,98713.94
2018-05-06T02:06:15.754Z,98711.11
2018-05-06T02:08:42.008Z,98708.02
2018-05-06T02:11:08.222Z,98705.08
2018-05-06T02:13:34.470Z,98702.12
2018-05-06T02:16:00.690Z,98704.48
2018-05-06T02:18:26.942Z,98705.45
2018-05-06T02:20:53.223Z,98703.83
2018-05-06T02:23:19.450Z,98701.55
2018-05-06T02:25:45.683Z,98705.55
2018-05-06T02:28:11.955Z,98707.05
2018-05-06T02:30:38.191Z,98709.15
2018-05-06T02:33:04.463Z,98710.15
2018-05-06T02:35:30.719Z,98706.94
2018-05-06T02:37:57.049Z,98710.41
2018-05-06T02:40:23.292Z,98711.45
2018-05-06T02:42:49.541Z,98711.89
2018-05-06T02:45:15.762Z,98705.44
2018-05-06T02:47:41.994Z,98708.66
2018-05-06T02:50:08.311Z,98710.32
2018-05-06T02:52:34.530Z,98706.86
2018-05-06T02:55:00.762Z,98705.58
2018-05-06T02:57:27.102Z,98710.70
2018-05-06T02:59:53.349Z,98707.22
2018-05-06T03:02:19.590Z,98711.84
2018-05-06T03:04:45.838Z,98710.78
2018-05-06T03:07:12.092Z,98710.20
2018-05-06T03:09:38.305Z,98707.34
2018-05-06T03:12:04.573Z,98703.16
2018-05-06T03:14:30.876Z,98698.67
2018-05-06T03:16:57.121Z,98704.34
2018-05-06T03:19:23.375Z,98694.79
2018-05-06T03:21:49.602Z,98703.05
2018-05-06T03:24:15.813Z,98699.03
2018-05-06T03:26:42.062Z,98706.30
2018-05-06T03:29:08.296Z,98705.28
2018-05-06T03:31:34.514Z,98708.69
2018-05-06T03:34:00.760Z,98708.11
2018-05-06T03:36:26.982Z,98709.38
2018-05-06T03:38:53.250Z,98716.34
2018-05-06T03:41:19.514Z,98714.66
2018-05-06T03:43:45.794Z,98710.00
2018-05-06T03:46:12.130Z,98719.10
2018-05-06T03:48:38.381Z,98717.55
2018-05-06T03:51:04.602Z,98718.23
2018-05-06T03:53:30.819Z,98722.74
2018-05-06T04:09:38.742Z,98735.80
2018-05-06T04:12:04.958Z,98726.88
2018-05-06T04:14:31.170Z,98730.13
2018-05-06T04:16:57.412Z,98737.69
2018-05-06T04:19:23.638Z,98739.81
2018-05-06T04:21:49.866Z,98734.06
2018-05-06T04:24:16.127Z,98741.53
2018-05-06T04:26:42.410Z,98741.57
2018-05-06T04:29:08.603Z,98745.55
2018-05-06T04:31:34.841Z,98741.78
2018-05-06T04:34:01.177Z,98743.03
2018-05-06T04:36:27.406Z,98744.92
2018-05-06T04:38:54.766Z,98744.40
2018-05-06T04:41:20.978Z,98745.01
2018-05-06T04:43:47.213Z,98735.65
2018-05-06T04:46:13.466Z,98735.69
2018-05-06T04:48:39.698Z,98735.66
2018-05-06T04:51:05.918Z,98731.40
2018-05-06T04:53:32.228Z,98739.60
2018-05-06T04:55:58.438Z,98733.64
2018-05-06T04:58:24.746Z,98738.44
2018-05-06T05:00:50.995Z,98738.66
2018-05-06T05:03:17.221Z,98733.31
2018-05-06T05:05:43.523Z,98728.59
2018-05-06T05:08:10.514Z,98726.64
2018-05-06T05:10:36.732Z,98721.22
2018-05-06T05:13:03.044Z,98720.42
2018-05-06T05:15:29.310Z,98719.61
2018-05-06T05:17:55.579Z,98721.61
2018-05-06T05:20:21.825Z,98721.52
2018-05-06T05:22:48.106Z,98726.80
2018-05-06T05:25:14.331Z,98725.13
2018-05-06T05:27:40.553Z,98723.47
2018-05-06T05:30:06.850Z,98726.25
2018-05-06T05:32:33.086Z,98722.57
2018-05-06T05:34:59.371Z,98723.59
2018-05-06T05:37:32.664Z,98725.42
2018-05-06T05:39:58.883Z,98724.80
2018-05-06T05:42:25.102Z,98721.30
2018-05-06T05:44:51.338Z,98723.31
2018-05-06T05:47:17.554Z,98726.00
2018-05-06T05:49:43.794Z,98725.11
2018-05-06T05:52:10.037Z,98726.17
2018-05-06T05:54:36.282Z,98724.05
2018-05-06T05:57:02.490Z,98727.45
2018-05-06T05:59:28.742Z,98725.72
2018-05-06T06:01:54.990Z,98725.17
2018-05-06T06:04:21.211Z,98727.09
2018-05-06T06:06:47.454Z,98724.68
2018-05-06T06:09:13.713Z,98731.66
2018-05-06T06:11:39.939Z,98728.99
2018-05-06T06:14:06.186Z,98726.58
2018-05-06T06:16:32.395Z,98729.53
2018-05-06T06:18:58.609Z,98734.57
2018-05-06T06:21:24.879Z,98723.25
2018-05-06T06:23:51.095Z,98729.31
2018-05-06T06:26:17.426Z,98735.03
2018-05-06T06:28:43.762Z,98728.89
2018-05-06T06:31:09.973Z,98729.52
2018-05-06T06:33:36.406Z,98732.23
2018-05-06T06:36:02.650Z,98728.56
2018-05-06T06:38:28.933Z,98729.95
2018-05-06T06:40:55.266Z,98719.74
2018-05-06T06:43:21.534Z,98732.70
2018-05-06T06:45:47.834Z,98737.09
2018-05-06T06:48:14.046Z,98731.95
2018-05-06T06:50:40.347Z,98731.56
2018-05-06T06:53:06.695Z,98735.51
2018-05-06T06:55:32.943Z,98734.49
2018-05-06T06:57:59.227Z,98735.97
2018-05-06T07:00:25.437Z,98733.46
2018-05-06T07:02:51.654Z,98729.74
2018-05-06T07:05:17.881Z,98727.05
2018-05-06T07:07:44.087Z,98728.59
2018-05-06T07:10:10.297Z,98725.20
2018-05-06T07:12:36.622Z,98726.74
2018-05-06T07:15:02.880Z,98717.26
2018-05-06T07:17:29.105Z,98721.55
2018-05-06T07:19:55.397Z,98719.97
2018-05-06T07:22:21.613Z,98717.90
2018-05-06T07:24:47.819Z,98720.31
2018-05-06T07:27:14.064Z,98718.31
2018-05-06T07:29:40.277Z,98716.39
2018-05-06T07:32:06.581Z,98719.30
2018-05-06T07:34:32.813Z,98714.00
2018-05-06T07:36:59.014Z,98716.19
2018-05-06T07:39:25.324Z,98710.91
2018-05-06T07:41:51.553Z,98711.61
2018-05-06T07:44:17.759Z,98710.47
2018-05-06T07:46:44.022Z,98719.19
2018-05-06T07:49:10.274Z,98713.99
2018-05-06T07:51:36.503Z,98717.75
2018-05-06T07:54:02.747Z,98711.66
2018-05-06T07:56:29.015Z,98717.11
2018-05-06T07:58:56.298Z,98714.48
2018-05-06T08:01:22.599Z,98720.97
2018-05-06T08:03:48.866Z,98728.10
2018-05-06T08:06:15.073Z,98729.39
2018-05-06T08:08:41.305Z,98724.38
2018-05-06T08:11:07.595Z,98733.06
2018-05-06T08:13:33.834Z,98726.71
2018-05-06T08:16:00.046Z,98731.53
2018-05-06T08:18:26.311Z,98725.55
2018-05-06T08:20:52.534Z,98724.90
2018-05-06T08:23:18.782Z,98733.41
2018-05-06T08:25:45.035Z,98735.05
2018-05-06T08:28:11.318Z,98740.05
2018-05-06T08:30:37.546Z,98730.64
2018-05-06T08:33:03.889Z,98732.00
2018-05-06T08:35:30.116Z,98728.97
2018-05-06T08:37:56.337Z,98739.05
2018-05-06T08:40:22.593Z,98732.47
2018-05-06T08:42:48.847Z,98728.61
2018-05-06T08:45:15.061Z,98738.56
2018-05-06T08:47:41.316Z,98734.40
2018-05-06T08:50:07.534Z,98736.81
2018-05-06T08:52:33.768Z,98735.58
2018-05-06T08:55:00.015Z,98732.72
2018-05-06T08:57:26.241Z,98730.23
2018-05-06T08:59:52.471Z,98732.51
2018-05-06T09:02:18.727Z,98724.52
2018-05-06T09:04:44.963Z,98734.45
2018-05-06T09:07:11.187Z,98722.52
2018-05-06T09:09:37.510Z,98726.50
2018-05-06T09:12:03.745Z,98723.53
2018-05-06T09:14:29.945Z,98726.67
2018-05-06T09:16:56.198Z,98724.64
2018-05-06T09:19:22.435Z,98724.56
2018-05-06T09:21:48.655Z,98732.91
2018-05-06T09:24:14.909Z,98728.77
2018-05-06T09:26:41.135Z,98724.66
2018-05-06T09:29:07.403Z,98719.45
2018-05-06T09:31:33.664Z,98721.59
2018-05-06T09:33:59.932Z,98734.11
2018-05-06T09:36:26.282Z,98727.96
2018-05-06T09:38:52.688Z,98732.18
2018-05-06T09:41:18.938Z,98727.96
2018-05-06T09:43:45.175Z,98737.54
2018-05-06T09:46:11.430Z,98732.83
2018-05-06T09:48:37.650Z,98733.84
2018-05-06T09:51:03.882Z,98734.14
2018-05-06T09:53:30.218Z,98729.72
2018-05-06T09:55:56.450Z,98719.89
2018-05-06T09:58:22.715Z,98722.34
2018-05-06T10:00:49.033Z,98723.48
2018-05-06T10:03:15.250Z,98726.61
2018-05-06T10:05:41.539Z,98714.52
2018-05-06T10:08:07.873Z,98722.42
2018-05-06T10:10:34.071Z,98722.54
2018-05-06T10:13:00.322Z,98718.21
2018-05-06T10:15:26.582Z,98714.72
2018-05-06T10:17:52.811Z,98699.67
2018-05-06T10:20:19.062Z,98706.13
2018-05-06T10:22:45.329Z,98706.55
2018-05-06T10:25:11.697Z,98696.95
2018-05-06T10:27:37.942Z,98701.77
2018-05-06T10:30:04.197Z,98697.09
2018-05-06T10:32:30.427Z,98694.33
2018-05-06T10:34:56.670Z,98699.63
2018-05-06T10:37:22.947Z,98702.15
2018-05-06T10:39:49.191Z,98705.94
2018-05-06T10:42:15.414Z,98697.97
2018-05-06T10:44:41.782Z,98709.14
2018-05-06T10:47:08.037Z,98697.41
2018-05-06T10:49:34.266Z,98701.83
2018-05-06T10:52:00.550Z,98701.45
2018-05-06T10:54:26.777Z,98696.77
2018-05-06T10:56:53.083Z,98702.14
2018-05-06T10:59:19.351Z,98699.88
2018-05-06T11:01:45.632Z,98694.48
2018-05-06T11:04:11.867Z,98695.06
2018-05-06T11:06:38.214Z,98691.73
2018-05-06T11:09:04.526Z,98690.69
2018-05-06T11:11:30.746Z,98677.93
2018-05-06T11:13:56.995Z,98672.63
2018-05-06T11:16:23.213Z,98677.57
2018-05-06T11:18:49.478Z,98683.05
2018-05-06T11:21:15.733Z,98679.90
2018-05-06T11:23:41.949Z,98679.73
2018-05-06T11:26:08.212Z,98683.64
2018-05-06T11:28:34.503Z,98676.39
2018-05-06T11:31:00.788Z,98677.88
2018-05-06T11:33:27.138Z,98672.64
2018-05-06T11:35:53.331Z,98674.02
2018-05-06T11:38:19.648Z,98679.41
2018-05-06T11:40:45.861Z,98674.25
2018-05-06T11:43:12.114Z,98675.97
2018-05-06T11:45:38.444Z,98673.06
2018-05-06T11:48:04.680Z,98677.70
2018-05-06T11:50:30.946Z,98676.38
2018-05-06T11:52:57.166Z,98675.19
2018-05-06T11:55:23.397Z,98673.30
2018-05-06T11:57:49.698Z,98667.17
2018-05-06T12:00:15.919Z,98669.80
2018-05-06T12:02:42.288Z,98668.81
2018-05-06T12:05:08.594Z,98664.24
2018-05-06T12:07:34.890Z,98663.44
2018-05-06T12:10:01.138Z,98667.04
2018-05-06T12:12:27.385Z,98662.85
2018-05-06T12:14:53.622Z,98661.56
2018-05-06T12:17:19.877Z,98659.17
2018-05-06T12:19:46.239Z,98648.88
2018-05-06T12:22:12.426Z,98645.65
2018-05-06T12:24:38.700Z,98644.34
2018-05-06T12:27:05.035Z,98641.02
2018-05-06T12:29:31.426Z,98630.02
2018-05-06T12:31:57.675Z,98629.59
2018-05-06T12:34:23.927Z,98617.43
2018-05-06T12:36:50.154Z,98628.19
2018-05-06T12:39:16.462Z,98621.77
2018-05-06T12:41:44.431Z,98612.33
2018-05-06T12:44:10.699Z,98613.55
2018-05-06T12:46:37.051Z,98605.04
2018-05-06T12:49:03.306Z,98603.09
2018-05-06T12:51:29.547Z,98604.84
2018-05-06T12:53:55.879Z,98596.07
2018-05-06T12:56:22.226Z,98595.21
2018-05-06T12:58:48.732Z,98595.93
2018-05-06T13:01:15.040Z,98586.00
2018-05-06T13:03:41.301Z,98586.94
2018-05-06T13:06:07.662Z,98583.16
2018-05-06T13:08:33.931Z,98579.60
2018-05-06T13:11:00.283Z,98583.45
2018-05-06T13:13:26.510Z,98579.70
2018-05-06T13:15:52.737Z,98576.61
2018-05-06T13:18:19.006Z,98571.83
2018-05-06T13:20:45.226Z,98570.69
2018-05-06T13:23:11.438Z,98566.24
2018-05-06T13:25:37.702Z,98572.14
2018-05-06T13:28:04.022Z,98570.92
2018-05-06T13:30:30.246Z,98566.91
2018-05-06T13:32:56.531Z,98562.88
2018-05-06T13:35:22.841Z,98559.39
2018-05-06T13:37:49.086Z,98562.09
2018-05-06T13:40:15.379Z,98551.33
2018-05-06T13:42:41.611Z,98560.94
2018-05-06T13:45:07.888Z,98555.95
2018-05-06T13:47:34.243Z,98558.89
2018-05-06T13:50:00.509Z,98546.98
2018-05-06T13:52:26.866Z,98559.30
2018-05-06T13:54:53.123Z,98562.31
2018-05-06T13:57:19.434Z,98557.99
2018-05-06T13:59:45.646Z,98560.09
2018-05-06T14:02:11.893Z,98556.24
2018-05-06T14:04:38.168Z,98547.91
2018-05-06T14:07:04.469Z,98551.16
2018-05-06T14:09:30.751Z,98550.67
2018-05-06T14:11:56.961Z,98550.70
2018-05-06T14:14:23.197Z,98547.33
2018-05-06T14:16:49.504Z,98540.29
2018-05-06T14:19:15.721Z,98545.30
2018-05-06T14:21:42.016Z,98530.39
2018-05-06T14:24:08.346Z,98533.05
2018-05-06T14:26:34.562Z,98530.78
2018-05-06T14:29:00.803Z,98532.78
2018-05-06T14:31:27.073Z,98530.78
2018-05-06T14:33:53.282Z,98534.41
2018-05-06T14:36:19.526Z,98526.27
2018-05-06T14:38:45.779Z,98524.08
2018-05-06T14:41:12.021Z,98531.70
2018-05-06T14:43:38.256Z,98523.61
2018-05-06T14:46:04.555Z,98527.92
2018-05-06T14:48:30.862Z,98527.17
2018-05-06T14:50:57.043Z,98530.78
2018-05-06T14:53:23.285Z,98526.74
2018-05-06T14:55:49.638Z,98527.05
2018-05-06T14:58:15.811Z,98530.17
2018-05-06T15:00:42.126Z,98531.13
2018-05-06T15:03:08.374Z,98521.39
2018-05-06T15:05:34.606Z,98525.00
2018-05-06T15:08:00.911Z,98524.14
2018-05-06T15:10:27.277Z,98524.79
2018-05-06T15:12:53.424Z,98525.05
2018-05-06T15:15:19.678Z,98520.45
2018-05-06T15:17:46.009Z,98520.00
2018-05-06T15:20:12.259Z,98517.67
2018-05-06T15:22:38.569Z,98516.30
2018-05-06T15:25:04.783Z,98513.34
2018-05-06T15:27:31.099Z,98526.38
2018-05-06T15:29:57.374Z,98525.75
2018-05-06T15:32:23.586Z,98522.44
2018-05-06T15:34:49.882Z,98517.64
2018-05-06T15:37:16.139Z,98509.27
2018-05-06T15:39:42.454Z,98511.09
2018-05-06T15:42:08.699Z,98507.94
2018-05-06T15:44:34.962Z,98506.10
2018-05-06T15:47:01.188Z,98500.84
2018-05-06T15:49:27.570Z,98510.09
2018-05-06T15:51:53.859Z,98505.09
2018-05-06T15:54:20.155Z,98505.95
2018-05-06T15:56:46.441Z,98495.60
2018-05-06T15:59:12.718Z,98499.15
2018-05-06T16:01:38.950Z,98496.77
2018-05-06T16:04:14.049Z,98502.98
2018-05-06T16:06:40.280Z,98496.65
2018-05-06T16:09:06.626Z,98487.74
2018-05-06T16:11:32.912Z,98490.83
2018-05-06T16:13:59.255Z,98496.72
2018-05-06T16:16:25.509Z,98491.72
2018-05-06T16:18:51.830Z,98490.02
2018-05-06T16:21:18.099Z,98487.36
2018-05-06T16:23:44.331Z,98491.98
2018-05-06T16:26:10.595Z,98487.17
2018-05-06T16:28:36.817Z,98483.94
2018-05-06T16:31:03.985Z,98484.51
2018-05-06T16:33:30.319Z,98486.33
2018-05-06T16:35:56.537Z,98487.97
2018-05-06T16:38:22.882Z,98493.81
2018-05-06T16:40:49.378Z,98485.85
2018-05-06T16:43:15.615Z,98489.38
2018-05-06T16:45:42.025Z,98489.03
2018-05-06T16:48:08.249Z,98484.37
2018-05-06T16:50:34.473Z,98489.17
2018-05-06T16:53:00.698Z,98487.39
2018-05-06T16:55:26.969Z,98485.98
2018-05-06T16:57:53.211Z,98486.55
2018-05-06T17:00:19.534Z,98484.30
2018-05-06T17:02:45.790Z,98483.05
2018-05-06T17:07:38.141Z,98485.71
2018-05-06T17:10:04.419Z,98488.11
2018-05-06T17:12:30.707Z,98489.06
2018-05-06T17:14:56.982Z,98479.73
2018-05-06T17:17:23.268Z,98483.23
2018-05-06T17:19:53.154Z,98481.81
2018-05-06T17:22:19.384Z,98486.11
2018-05-06T17:24:45.642Z,98483.10
2018-05-06T17:27:11.903Z,98486.41
2018-05-06T17:29:38.173Z,98482.15
2018-05-06T17:32:04.526Z,98484.89
2018-05-06T17:34:30.765Z,98485.91
2018-05-06T17:36:57.101Z,98489.49
2018-05-06T17:39:23.387Z,98485.55
2018-05-06T17:41:49.626Z,98484.73
2018-05-06T17:44:15.863Z,98486.14
2018-05-06T17:46:42.147Z,98488.16
2018-05-06T17:49:08.392Z,98489.83
2018-05-06T17:51:34.686Z,98488.77
2018-05-06T17:54:00.968Z,98490.83
2018-05-06T17:56:27.211Z,98489.95
2018-05-06T17:58:53.439Z,98495.81
2018-05-06T18:01:19.726Z,98490.89
2018-05-06T18:03:46.031Z,98486.28
2018-05-06T18:06:12.276Z,98486.11
2018-05-06T18:08:38.526Z,98492.47
2018-05-06T18:11:04.802Z,98493.56
2018-05-06T18:13:31.043Z,98495.30
2018-05-06T18:15:57.269Z,98494.73
2018-05-06T18:18:23.504Z,98496.00
2018-05-06T18:20:50.106Z,98496.42
2018-05-06T18:23:16.379Z,98495.11
2018-05-06T18:25:42.636Z,98497.98
2018-05-06T18:28:08.879Z,98491.52
2018-05-06T18:30:35.154Z,98494.00
2018-05-06T18:33:01.459Z,98491.73
2018-05-06T18:35:27.791Z,98489.12
2018-05-06T18:37:54.067Z,98487.76
2018-05-06T18:40:20.322Z,98492.70
2018-05-06T18:42:46.664Z,98492.64
2018-05-06T18:45:13.022Z,98493.33
2018-05-06T18:47:39.240Z,98502.70
2018-05-06T18:50:05.497Z,98506.36
2018-05-06T18:52:31.760Z,98507.80
2018-05-06T18:54:58.036Z,98507.48
2018-05-06T18:57:24.312Z,98506.02
2018-05-06T18:59:50.566Z,98509.88
2018-05-06T19:02:16.877Z,98509.06
2018-05-06T19:04:43.131Z,98516.97
2018-05-06T19:07:09.463Z,98518.13
2018-05-06T19:09:35.787Z,98517.67
2018-05-06T19:12:02.267Z,98519.60
2018-05-06T19:14:28.570Z,98519.25
2018-05-06T19:16:54.797Z,98517.34
2018-05-06T19:19:21.018Z,98517.73
2018-05-06T19:21:47.268Z,98524.77
2018-05-06T19:24:13.551Z,98519.55
2018-05-06T19:26:39.906Z,98518.17
2018-05-06T19:29:06.235Z,98516.07
2018-05-06T19:31:32.546Z,98514.44
2018-05-06T19:33:59.996Z,98518.00
2018-05-06T19:36:26.338Z,98518.27
2018-05-06T19:38:52.574Z,98515.81
2018-05-06T19:41:18.791Z,98516.32
2018-05-06T19:43:45.123Z,98521.94
2018-05-06T19:46:11.358Z,98519.49
2018-05-06T19:48:37.731Z,98517.95
2018-05-06T19:51:03.943Z,98515.11
2018-05-06T19:53:30.223Z,98517.66
2018-05-06T19:55:56.439Z,98521.22
2018-05-06T19:58:22.778Z,98519.27
2018-05-06T20:00:49.122Z,98517.97
2018-05-06T20:03:15.419Z,98515.17
2018-05-06T20:05:41.669Z,98515.76
2018-05-06T20:08:08.995Z,98510.54
2018-05-06T20:10:35.314Z,98507.22
2018-05-06T20:13:01.605Z,98515.33
2018-05-06T20:15:27.865Z,98511.88
2018-05-06T20:17:54.094Z,98510.84
2018-05-06T20:20:20.597Z,98511.09
2018-05-06T20:22:46.886Z,98515.27
2018-05-06T20:25:13.248Z,98516.67
2018-05-06T20:27:39.547Z,98519.22
2018-05-06T20:30:05.879Z,98519.98
2018-05-06T20:32:32.369Z,98526.97
2018-05-06T20:34:58.615Z,98533.44
2018-05-06T20:37:24.938Z,98528.20
2018-05-06T20:39:51.275Z,98526.91
2018-05-06T20:42:17.550Z,98525.42
2018-05-06T20:44:43.851Z,98528.50
2018-05-06T20:47:10.069Z,98529.16
2018-05-06T20:49:36.318Z,98522.92
2018-05-06T20:52:02.549Z,98522.52
2018-05-06T20:54:28.791Z,98519.19
2018-05-06T20:56:55.036Z,98518.78
2018-05-06T20:59:21.314Z,98521.45
2018-05-06T21:01:47.535Z,98519.80
2018-05-06T21:04:13.895Z,98522.19
2018-05-06T21:06:40.159Z,98517.92
2018-05-06T21:09:06.390Z,98521.98
2018-05-06T21:11:32.638Z,98522.37
2018-05-06T21:13:58.946Z,98521.19
2018-05-06T21:16:25.163Z,98522.83
2018-05-06T21:18:51.443Z,98520.63
2018-05-06T21:21:17.662Z,98524.83
2018-05-06T21:23:43.966Z,98524.58
2018-05-06T21:26:10.703Z,98522.94
2018-05-06T21:28:37.017Z,98523.08
2018-05-06T21:31:03.270Z,98518.22
2018-05-06T21:33:29.545Z,98517.69
2018-05-06T21:35:55.778Z,98520.77
2018-05-06T21:38:22.045Z,98514.02
2018-05-06T21:40:48.308Z,98525.77
2018-05-06T21:43:14.598Z,98523.11
2018-05-06T21:45:40.837Z,98525.98
2018-05-06T21:48:07.195Z,98526.50
2018-05-06T21:50:33.414Z,98526.96
2018-05-06T21:52:59.727Z,98525.31
2018-05-06T21:55:25.990Z,98520.35
2018-05-06T21:57:52.280Z,98524.78
2018-05-06T22:00:18.523Z,98529.47
2018-05-06T22:02:44.934Z,98534.64
2018-05-06T22:05:11.190Z,98531.52
2018-05-06T22:07:37.410Z,98525.69
2018-05-06T22:10:03.771Z,98525.97
2018-05-06T22:12:29.995Z,98528.72
2018-05-06T22:14:56.270Z,98526.02
2018-05-06T22:17:22.526Z,98525.45
2018-05-06T22:19:48.759Z,98529.36
2018-05-06T22:22:15.060Z,98520.25
2018-05-06T22:24:41.419Z,98523.87
2018-05-06T22:27:07.669Z,98522.56
2018-05-06T22:29:33.938Z,98519.81
2018-05-06T22:32:00.367Z,98516.33
2018-05-06T22:34:26.535Z,98512.14
2018-05-06T22:36:52.826Z,98516.47
2018-05-06T22:39:19.231Z,98516.57
2018-05-06T22:41:45.545Z,98516.84
2018-05-06T22:44:11.806Z,98520.69
2018-05-06T22:46:38.171Z,98517.08
2018-05-06T22:49:04.473Z,98515.43
2018-05-06T22:51:30.805Z,98519.67
2018-05-06T22:53:57.145Z,98516.82
2018-05-06T22:56:23.357Z,98516.95
2018-05-06T22:58:49.776Z,98516.02
2018-05-06T23:01:16.090Z,98506.58
2018-05-06T23:03:42.338Z,98509.52
2018-05-06T23:06:08.556Z,98510.15
2018-05-06T23:08:34.918Z,98512.16
2018-05-06T23:11:01.148Z,98508.84
2018-05-06T23:13:27.518Z,98505.73
2018-05-06T23:15:53.778Z,98501.73
2018-05-06T23:18:20.099Z,98493.61
2018-05-06T23:20:46.315Z,98492.20
2018-05-06T23:23:12.586Z,98493.45
2018-05-06T23:25:38.929Z,98499.13
2018-05-06T23:28:05.179Z,98500.57
2018-05-06T23:30:31.433Z,98498.95
2018-05-06T23:32:57.786Z,98498.66
2018-05-06T23:35:24.007Z,98498.56
2018-05-06T23:37:50.262Z,98500.81
2018-05-06T23:40:16.514Z,98499.59
2018-05-06T23:42:42.730Z,98499.99
2018-05-06T23:45:09.155Z,98509.91
2018-05-06T23:47:35.398Z,98507.20
2018-05-06T23:50:01.635Z,98504.25
2018-05-06T23:52:27.986Z,98507.52
2018-05-06T23:54:54.205Z,98513.54
2018-05-06T23:57:20.456Z,98508.70
2018-05-06T23:59:46.719Z,98507.69
